createdAt,value
2017-10-12T00:01:12.783Z,100759
2017-10-12T00:03:41.045Z,100764
2017-10-12T00:06:09.288Z,100768
2017-10-12T00:08:37.503Z,100758
2017-10-12T00:11:05.747Z,100758
2017-10-12T00:13:35.081Z,100759
2017-10-12T00:16:03.411Z,100765
2017-10-12T00:18:31.662Z,100757
2017-10-12T00:20:59.902Z,100757
2017-10-12T00:23:28.095Z,100748
2017-10-12T00:25:56.347Z,100737
2017-10-12T00:28:24.630Z,100731
2017-10-12T00:30:52.815Z,100725
2017-10-12T00:33:23.294Z,100731
2017-10-12T00:35:51.507Z,100723
2017-10-12T00:38:19.726Z,100721
2017-10-12T00:40:47.950Z,100716
2017-10-12T00:43:16.313Z,100712
2017-10-12T00:45:45.290Z,100704
2017-10-12T00:48:15.029Z,100707
2017-10-12T00:50:43.269Z,100695
2017-10-12T00:53:12.252Z,100690
2017-10-12T00:55:40.519Z,100691
2017-10-12T00:58:08.719Z,100683
2017-10-12T01:00:37.699Z,100688
2017-10-12T01:03:06.689Z,100673
2017-10-12T01:05:36.628Z,100682
2017-10-12T01:08:05.751Z,100684
2017-10-12T01:10:34.024Z,100678
2017-10-12T01:13:02.302Z,100685
2017-10-12T01:15:30.549Z,100690
2017-10-12T01:17:59.516Z,100689
2017-10-12T01:20:28.511Z,100683
2017-10-12T01:22:57.566Z,100684
2017-10-12T01:25:25.781Z,100681
2017-10-12T01:27:54.840Z,100680
2017-10-12T01:30:23.073Z,100677
2017-10-12T01:32:51.300Z,100676
2017-10-12T01:35:19.537Z,100674
2017-10-12T01:37:47.723Z,100670
2017-10-12T01:40:15.948Z,100661
2017-10-12T01:42:44.176Z,100660
2017-10-12T01:45:12.390Z,100660
2017-10-12T01:47:40.590Z,100660
2017-10-12T01:50:09.527Z,100661
2017-10-12T01:52:37.734Z,100662
2017-10-12T01:55:06.732Z,100663
2017-10-12T01:57:36.414Z,100660
2017-10-12T02:00:04.633Z,100652
2017-10-12T02:02:32.846Z,100655
2017-10-12T02:05:01.104Z,100659
2017-10-12T02:07:29.335Z,100663
2017-10-12T02:09:58.341Z,100671
2017-10-12T02:12:26.644Z,100656
2017-10-12T02:14:55.666Z,100659
2017-10-12T02:17:23.943Z,100664
2017-10-12T02:19:52.197Z,100667
2017-10-12T02:22:20.426Z,100658
2017-10-12T02:24:49.523Z,100664
2017-10-12T02:27:17.858Z,100657
2017-10-12T02:29:46.073Z,100653
2017-10-12T02:32:15.243Z,100668
2017-10-12T02:34:43.555Z,100665
2017-10-12T02:37:11.762Z,100670
2017-10-12T02:39:40.003Z,100665
2017-10-12T02:42:08.256Z,100661
2017-10-12T02:44:37.230Z,100666
2017-10-12T02:47:05.548Z,100661
2017-10-12T02:49:33.776Z,100649
2017-10-12T02:52:01.998Z,100671
2017-10-12T02:54:30.272Z,100655
2017-10-12T02:56:58.921Z,100655
2017-10-12T02:59:27.620Z,100650
2017-10-12T03:01:56.087Z,100657
2017-10-12T03:04:24.995Z,100661
2017-10-12T03:06:53.965Z,100669
2017-10-12T03:09:22.184Z,100670
2017-10-12T03:11:50.429Z,100662
2017-10-12T03:14:18.663Z,100657
2017-10-12T03:16:46.906Z,100653
2017-10-12T03:19:15.176Z,100665
2017-10-12T03:21:43.400Z,100660
2017-10-12T03:24:11.638Z,100667
2017-10-12T03:26:39.834Z,100671
2017-10-12T03:29:08.055Z,100661
2017-10-12T03:31:37.034Z,100659
2017-10-12T03:34:06.025Z,100674
2017-10-12T03:36:35.014Z,100676
2017-10-12T03:39:03.990Z,100671
2017-10-12T03:41:32.207Z,100666
2017-10-12T03:44:00.442Z,100665
2017-10-12T03:46:28.676Z,100677
2017-10-12T03:48:56.884Z,100672
2017-10-12T03:51:25.202Z,100673
2017-10-12T03:53:55.314Z,100674
2017-10-12T03:56:24.381Z,100680
2017-10-12T03:58:52.624Z,100683
2017-10-12T04:01:20.876Z,100688
2017-10-12T04:03:49.127Z,100679
2017-10-12T04:06:18.102Z,100683
2017-10-12T04:08:46.363Z,100669
2017-10-12T04:11:14.648Z,100669
2017-10-12T04:13:42.844Z,100680
2017-10-12T04:16:11.094Z,100680
2017-10-12T04:18:39.346Z,100684
2017-10-12T04:21:23.249Z,100678
2017-10-12T04:23:51.520Z,100673
2017-10-12T04:26:19.708Z,100677
2017-10-12T04:28:47.945Z,100679
2017-10-12T04:31:16.246Z,100679
2017-10-12T04:33:44.500Z,100689
2017-10-12T04:36:13.485Z,100696
2017-10-12T04:38:41.804Z,100700
2017-10-12T04:41:10.062Z,100696
2017-10-12T04:43:38.292Z,100702
2017-10-12T04:46:06.523Z,100701
2017-10-12T04:48:34.795Z,100711
2017-10-12T04:51:03.076Z,100715
2017-10-12T04:53:31.326Z,100721
2017-10-12T04:56:00.348Z,100733
2017-10-12T04:58:28.600Z,100729
2017-10-12T05:00:56.863Z,100729
2017-10-12T05:03:25.830Z,100719
2017-10-12T05:05:54.032Z,100725
2017-10-12T05:08:23.022Z,100738
2017-10-12T05:10:51.215Z,100723
2017-10-12T05:13:19.435Z,100727
2017-10-12T05:15:47.687Z,100732
2017-10-12T05:18:15.968Z,100743
2017-10-12T05:20:44.221Z,100742
2017-10-12T05:23:12.579Z,100742
2017-10-12T05:25:40.828Z,100761
2017-10-12T05:28:09.066Z,100754
2017-10-12T05:30:40.166Z,100739
2017-10-12T05:33:09.242Z,100756
2017-10-12T05:35:37.540Z,100751
2017-10-12T05:38:05.792Z,100762
2017-10-12T05:40:34.021Z,100768
2017-10-12T05:43:02.214Z,100763
2017-10-12T05:45:30.472Z,100769
2017-10-12T05:47:59.558Z,100761
2017-10-12T05:50:27.785Z,100769
2017-10-12T05:52:56.092Z,100780
2017-10-12T05:55:24.398Z,100790
2017-10-12T05:57:52.643Z,100797
2017-10-12T06:00:20.949Z,100809
2017-10-12T06:02:49.239Z,100820
2017-10-12T06:05:17.480Z,100811
2017-10-12T06:07:45.724Z,100816
2017-10-12T06:10:14.739Z,100833
2017-10-12T06:12:42.997Z,100838
2017-10-12T06:15:11.262Z,100832
2017-10-12T06:17:40.246Z,100852
2017-10-12T06:20:08.706Z,100850
2017-10-12T06:22:36.928Z,100852
2017-10-12T06:25:05.191Z,100860
2017-10-12T06:27:33.419Z,100859
2017-10-12T06:30:01.738Z,100872
2017-10-12T06:32:30.708Z,100867
2017-10-12T06:34:58.966Z,100876
2017-10-12T06:37:27.146Z,100867
2017-10-12T06:39:55.385Z,100876
2017-10-12T06:42:23.588Z,100874
2017-10-12T06:44:51.805Z,100878
2017-10-12T06:47:20.793Z,100884
2017-10-12T06:49:49.001Z,100901
2017-10-12T06:52:17.202Z,100894
2017-10-12T06:54:45.429Z,100903
2017-10-12T06:57:13.652Z,100909
2017-10-12T06:59:41.877Z,100910
2017-10-12T07:02:10.096Z,100904
2017-10-12T07:04:38.372Z,100911
2017-10-12T07:07:06.673Z,100917
2017-10-12T07:09:34.926Z,100920
2017-10-12T07:12:03.255Z,100936
2017-10-12T07:14:31.496Z,100939
2017-10-12T07:16:59.705Z,100939
2017-10-12T07:19:28.894Z,100939
2017-10-12T07:21:57.125Z,100942
2017-10-12T07:24:25.424Z,100951
2017-10-12T07:26:54.475Z,100959
2017-10-12T07:29:22.675Z,100964
2017-10-12T07:31:50.897Z,100967
2017-10-12T07:34:19.143Z,100962
2017-10-12T07:36:48.228Z,100979
2017-10-12T07:39:16.495Z,100978
2017-10-12T07:41:44.750Z,100987
2017-10-12T07:44:13.163Z,100994
2017-10-12T07:46:41.370Z,101002
2017-10-12T07:49:09.650Z,100994
2017-10-12T07:51:38.240Z,100991
2017-10-12T07:54:06.453Z,100992
2017-10-12T07:56:35.478Z,101000
2017-10-12T07:59:04.486Z,100998
2017-10-12T08:01:32.719Z,101015
2017-10-12T08:04:01.860Z,101020
2017-10-12T08:06:30.158Z,101005
2017-10-12T08:08:58.419Z,101032
2017-10-12T08:11:26.634Z,101037
2017-10-12T08:13:55.688Z,101040
2017-10-12T08:16:23.955Z,101051
2017-10-12T08:18:52.261Z,101041
2017-10-12T08:21:20.512Z,101051
2017-10-12T08:23:48.743Z,101069
2017-10-12T08:26:18.390Z,101067
2017-10-12T08:28:46.673Z,101073
2017-10-12T08:31:15.053Z,101067
2017-10-12T08:33:43.306Z,101082
2017-10-12T08:36:11.628Z,101077
2017-10-12T08:38:40.757Z,101073
2017-10-12T08:41:09.749Z,101086
2017-10-12T08:43:37.984Z,101095
2017-10-12T08:46:06.223Z,101084
2017-10-12T08:48:34.435Z,101087
2017-10-12T08:51:02.688Z,101090
2017-10-12T08:53:31.015Z,101110
2017-10-12T08:56:00.284Z,101104
2017-10-12T08:58:28.509Z,101108
2017-10-12T09:00:58.352Z,101121
2017-10-12T09:03:26.590Z,101122
2017-10-12T09:05:54.903Z,101126
2017-10-12T09:08:23.157Z,101134
2017-10-12T09:10:51.410Z,101153
2017-10-12T09:13:20.409Z,101147
2017-10-12T09:15:48.661Z,101147
2017-10-12T09:18:17.719Z,101169
2017-10-12T09:20:45.980Z,101172
2017-10-12T09:23:14.251Z,101153
2017-10-12T09:25:43.304Z,101173
2017-10-12T09:28:12.341Z,101177
2017-10-12T09:30:40.539Z,101173
2017-10-12T09:33:08.727Z,101166
2017-10-12T09:35:37.091Z,101172
2017-10-12T09:38:05.295Z,101183
2017-10-12T09:40:34.255Z,101194
2017-10-12T09:43:02.469Z,101191
2017-10-12T09:45:31.534Z,101193
2017-10-12T09:47:59.795Z,101197
2017-10-12T09:50:28.048Z,101198
2017-10-12T09:52:57.045Z,101211
2017-10-12T09:55:26.120Z,101214
2017-10-12T09:57:54.464Z,101224
2017-10-12T10:00:22.670Z,101251
2017-10-12T10:02:50.896Z,101222
2017-10-12T10:05:19.138Z,101228
2017-10-12T10:07:47.478Z,101249
2017-10-12T10:10:16.508Z,101244
2017-10-12T10:12:44.720Z,101247
2017-10-12T10:15:12.960Z,101264
2017-10-12T10:17:41.200Z,101250
2017-10-12T10:20:09.626Z,101258
2017-10-12T10:22:37.823Z,101261
2017-10-12T10:25:06.017Z,101277
2017-10-12T10:27:34.304Z,101269
2017-10-12T10:30:02.623Z,101280
2017-10-12T10:32:30.949Z,101277
2017-10-12T10:34:59.163Z,101285
2017-10-12T10:37:27.404Z,101281
2017-10-12T10:39:55.590Z,101302
2017-10-12T10:42:23.799Z,101300
2017-10-12T10:44:52.031Z,101304
2017-10-12T10:47:20.274Z,101303
2017-10-12T10:49:48.467Z,101302
2017-10-12T10:52:16.687Z,101300
2017-10-12T10:54:44.878Z,101318
2017-10-12T10:57:13.098Z,101316
2017-10-12T10:59:41.412Z,101327
2017-10-12T11:02:09.656Z,101330
2017-10-12T11:04:37.893Z,101328
2017-10-12T11:07:06.235Z,101324
2017-10-12T11:09:34.471Z,101348
2017-10-12T11:12:02.995Z,101331
2017-10-12T11:14:31.293Z,101334
2017-10-12T11:16:59.552Z,101344
2017-10-12T11:19:27.759Z,101334
2017-10-12T11:21:56.776Z,101342
2017-10-12T11:24:25.129Z,101357
2017-10-12T11:26:54.107Z,101334
2017-10-12T11:29:22.485Z,101339
2017-10-12T11:31:50.725Z,101362
2017-10-12T11:34:18.953Z,101379
2017-10-12T11:36:47.977Z,101360
2017-10-12T11:39:16.255Z,101372
2017-10-12T11:41:44.524Z,101376
2017-10-12T11:44:12.884Z,101378
2017-10-12T11:46:41.943Z,101384
2017-10-12T11:49:10.190Z,101383
2017-10-12T11:51:38.389Z,101402
2017-10-12T11:54:06.689Z,101390
2017-10-12T11:56:35.877Z,101403
2017-10-12T11:59:04.855Z,101402
2017-10-12T12:01:33.090Z,101390
2017-10-12T12:04:01.298Z,101407
2017-10-12T12:06:29.614Z,101394
2017-10-12T12:08:57.848Z,101421
2017-10-12T12:11:26.087Z,101431
2017-10-12T12:13:54.304Z,101427
2017-10-12T12:16:22.539Z,101430
2017-10-12T12:18:50.829Z,101439
2017-10-12T12:21:19.050Z,101436
2017-10-12T12:23:48.079Z,101442
2017-10-12T12:26:16.293Z,101449
2017-10-12T12:28:44.636Z,101448
2017-10-12T12:31:12.847Z,101457
2017-10-12T12:33:41.114Z,101441
2017-10-12T12:36:11.292Z,101456
2017-10-12T12:38:43.205Z,101481
2017-10-12T12:41:12.317Z,101467
2017-10-12T12:43:40.548Z,101463
2017-10-12T12:46:08.801Z,101460
2017-10-12T12:48:37.019Z,101470
2017-10-12T12:51:05.356Z,101465
2017-10-12T12:53:33.577Z,101471
2017-10-12T12:56:02.574Z,101468
2017-10-12T12:58:31.611Z,101477
2017-10-12T13:00:59.901Z,101480
2017-10-12T13:03:28.343Z,101472
2017-10-12T13:05:56.655Z,101485
2017-10-12T13:08:24.944Z,101485
2017-10-12T13:10:53.147Z,101491
2017-10-12T13:13:22.207Z,101498
2017-10-12T13:15:50.538Z,101514
2017-10-12T13:18:18.840Z,101508
2017-10-12T13:20:47.092Z,101498
2017-10-12T13:23:15.517Z,101494
2017-10-12T13:25:43.816Z,101501
2017-10-12T13:28:12.883Z,101506
2017-10-12T13:30:41.209Z,101528
2017-10-12T13:33:09.543Z,101527
2017-10-12T13:35:37.797Z,101523
2017-10-12T13:38:06.382Z,101532
2017-10-12T13:40:34.710Z,101535
2017-10-12T13:43:02.955Z,101541
2017-10-12T13:45:31.430Z,101545
2017-10-12T13:48:02.024Z,101550
2017-10-12T13:50:31.189Z,101545
2017-10-12T13:53:04.055Z,101552
2017-10-12T13:55:34.726Z,101569
2017-10-12T13:58:04.440Z,101563
2017-10-12T14:00:34.099Z,101559
2017-10-12T14:03:02.572Z,101567
2017-10-12T14:05:32.523Z,101569
2017-10-12T14:08:01.031Z,101570
2017-10-12T14:10:29.442Z,101586
2017-10-12T14:12:57.794Z,101575
2017-10-12T14:15:26.210Z,101577
2017-10-12T14:17:54.472Z,101577
2017-10-12T14:20:22.815Z,101577
2017-10-12T14:22:51.160Z,101579
2017-10-12T14:25:20.169Z,101588
2017-10-12T14:27:48.494Z,101586
2017-10-12T14:30:16.785Z,101588
2017-10-12T14:32:45.112Z,101586
2017-10-12T14:35:13.429Z,101585
2017-10-12T14:37:42.479Z,101597
2017-10-12T14:40:11.378Z,101595
2017-10-12T14:42:40.732Z,101599
2017-10-12T14:45:09.845Z,101604
2017-10-12T14:47:40.996Z,101601
2017-10-12T14:50:09.231Z,101612
2017-10-12T14:52:38.845Z,101623
2017-10-12T14:55:07.855Z,101623
2017-10-12T14:57:38.121Z,101629
2017-10-12T15:00:07.206Z,101623
2017-10-12T15:02:35.977Z,101645
2017-10-12T15:05:05.030Z,101643
2017-10-12T15:07:33.318Z,101633
2017-10-12T15:10:02.428Z,101638
2017-10-12T15:12:31.449Z,101636
2017-10-12T15:14:59.696Z,101645
2017-10-12T15:17:28.744Z,101650
2017-10-12T15:19:57.058Z,101650
2017-10-12T15:22:26.093Z,101653
2017-10-12T15:28:35.984Z,101652
2017-10-12T15:31:05.251Z,101657
2017-10-12T15:33:33.622Z,101664
2017-10-12T15:36:02.554Z,101663
2017-10-12T15:38:34.298Z,101668
2017-10-12T15:41:02.577Z,101663
2017-10-12T15:43:30.812Z,101663
2017-10-12T15:45:59.060Z,101673
2017-10-12T15:48:28.779Z,101675
2017-10-12T15:50:58.153Z,101681
2017-10-12T15:53:26.407Z,101687
2017-10-12T15:55:54.654Z,101681
2017-10-12T15:58:22.902Z,101674
2017-10-12T16:00:51.915Z,101682
2017-10-12T16:03:21.300Z,101694
2017-10-12T16:05:50.352Z,101700
2017-10-12T16:08:21.937Z,101717
2017-10-12T16:10:52.608Z,101697
2017-10-12T16:13:28.989Z,101699
2017-10-12T16:15:57.311Z,101707
2017-10-12T16:18:29.095Z,101701
2017-10-12T16:21:03.291Z,101720
2017-10-12T16:23:36.827Z,101710
2017-10-12T16:26:09.013Z,101723
2017-10-12T16:28:37.315Z,101721
2017-10-12T16:31:16.076Z,101731
2017-10-12T16:33:44.354Z,101725
2017-10-12T16:36:12.714Z,101725
2017-10-12T16:38:40.963Z,101731
2017-10-12T16:41:09.997Z,101733
2017-10-12T16:43:38.268Z,101734
2017-10-12T16:46:06.527Z,101735
2017-10-12T16:48:35.795Z,101739
2017-10-12T16:51:04.069Z,101745
2017-10-12T16:53:36.587Z,101739
2017-10-12T16:56:05.000Z,101736
2017-10-12T16:58:34.264Z,101756
2017-10-12T17:01:03.480Z,101755
2017-10-12T17:03:33.942Z,101757
2017-10-12T17:06:03.085Z,101758
2017-10-12T17:08:31.377Z,101759
2017-10-12T17:10:59.655Z,101765
2017-10-12T17:13:28.766Z,101760
2017-10-12T17:15:57.132Z,101765
2017-10-12T17:18:27.385Z,101770
2017-10-12T17:20:57.228Z,101767
2017-10-12T17:25:55.660Z,101767
2017-10-12T17:28:23.891Z,101780
2017-10-12T17:30:56.223Z,101780
2017-10-12T17:33:24.519Z,101773
2017-10-12T17:35:54.512Z,101777
2017-10-12T17:38:23.088Z,101766
2017-10-12T17:40:51.658Z,101773
2017-10-12T17:43:21.342Z,101776
2017-10-12T17:45:49.601Z,101779
2017-10-12T17:48:17.891Z,101780
2017-10-12T17:54:38.181Z,101791
2017-10-12T18:00:32.069Z,101789
2017-10-12T18:03:03.443Z,101793
2017-10-12T18:05:35.960Z,101797
2017-10-12T18:08:32.497Z,101803
2017-10-12T18:11:01.588Z,101802
2017-10-12T18:13:30.697Z,101804
2017-10-12T18:15:59.685Z,101813
2017-10-12T18:18:28.741Z,101808
2017-10-12T18:20:57.008Z,101813
2017-10-12T18:23:25.327Z,101819
2017-10-12T18:25:54.477Z,101817
2017-10-12T18:28:27.356Z,101822
2017-10-12T18:30:56.508Z,101818
2017-10-12T18:33:24.824Z,101823
2017-10-12T18:35:53.151Z,101826
2017-10-12T18:38:22.212Z,101827
2017-10-12T18:40:52.989Z,101834
2017-10-12T18:46:05.332Z,101836
2017-10-12T18:48:36.357Z,101835
2017-10-12T18:51:07.139Z,101839
2017-10-12T18:53:35.707Z,101844
2017-10-12T18:56:04.094Z,101851
2017-10-12T18:58:34.675Z,101852
2017-10-12T19:01:02.946Z,101849
2017-10-12T19:03:37.336Z,101848
2017-10-12T19:06:05.652Z,101853
2017-10-12T19:08:35.372Z,101858
2017-10-12T19:11:05.064Z,101859
2017-10-12T19:13:34.164Z,101857
2017-10-12T19:18:52.266Z,101856
2017-10-12T19:23:56.823Z,101861
2017-10-12T19:26:25.212Z,101864
2017-10-12T19:28:54.236Z,101871
2017-10-12T19:31:23.336Z,101863
2017-10-12T19:33:59.710Z,101864
2017-10-12T19:36:28.755Z,101870
2017-10-12T19:38:57.089Z,101877
2017-10-12T19:41:26.362Z,101869
2017-10-12T19:43:54.749Z,101872
2017-10-12T19:46:23.896Z,101885
2017-10-12T19:48:52.620Z,101881
2017-10-12T19:53:53.841Z,101884
2017-10-12T19:56:22.171Z,101890
2017-10-12T19:59:05.480Z,101887
2017-10-12T20:01:18.922Z,101884
2017-10-12T20:03:47.505Z,101878
2017-10-12T20:06:17.381Z,101887
2017-10-12T20:08:46.424Z,101894
2017-10-12T20:11:15.024Z,101896
2017-10-12T20:16:22.207Z,101887
2017-10-12T20:18:50.506Z,101900
2017-10-12T20:23:47.872Z,101899
2017-10-12T20:26:18.365Z,101896
2017-10-12T20:28:46.616Z,101895
2017-10-12T20:31:15.660Z,101898
2017-10-12T20:33:44.022Z,101906
2017-10-12T20:36:12.392Z,101897
2017-10-12T20:38:41.415Z,101908
2017-10-12T20:41:10.682Z,101904
2017-10-12T20:43:44.774Z,101907
2017-10-12T20:46:13.347Z,101911
2017-10-12T20:48:42.533Z,101904
2017-10-12T20:51:10.824Z,101905
2017-10-12T20:53:40.015Z,101907
2017-10-12T20:56:09.114Z,101910
2017-10-12T20:58:37.432Z,101903
2017-10-12T21:01:05.847Z,101900
2017-10-12T21:03:35.284Z,101904
2017-10-12T21:06:03.845Z,101907
2017-10-12T21:08:32.933Z,101902
2017-10-12T21:11:02.144Z,101903
2017-10-12T21:13:30.442Z,101909
2017-10-12T21:15:58.690Z,101906
2017-10-12T21:18:26.957Z,101897
2017-10-12T21:20:55.997Z,101907
2017-10-12T21:23:24.285Z,101908
2017-10-12T21:25:52.606Z,101906
2017-10-12T21:28:21.610Z,101908
2017-10-12T21:30:49.863Z,101907
2017-10-12T21:33:18.881Z,101907
2017-10-12T21:35:47.160Z,101907
2017-10-12T21:38:15.476Z,101917
2017-10-12T21:40:43.687Z,101912
2017-10-12T21:43:12.991Z,101913
2017-10-12T21:45:42.009Z,101925
2017-10-12T21:48:10.231Z,101916
2017-10-12T21:50:41.829Z,101914
2017-10-12T21:53:10.154Z,101916
2017-10-12T21:55:38.428Z,101923
2017-10-12T21:58:06.634Z,101913
2017-10-12T22:00:35.632Z,101919
2017-10-12T22:03:03.888Z,101918
2017-10-12T22:05:34.968Z,101919
2017-10-12T22:08:03.185Z,101920
2017-10-12T22:10:31.421Z,101925
2017-10-12T22:12:59.677Z,101913
2017-10-12T22:15:28.756Z,101922
2017-10-12T22:17:57.044Z,101927
2017-10-12T22:20:26.085Z,101921
2017-10-12T22:22:54.411Z,101923
2017-10-12T22:25:23.391Z,101919
2017-10-12T22:27:51.652Z,101916
2017-10-12T22:30:19.862Z,101917
2017-10-12T22:32:49.738Z,101920
2017-10-12T22:35:17.985Z,101908
2017-10-12T22:37:46.223Z,101920
2017-10-12T22:40:14.507Z,101916
2017-10-12T22:42:42.740Z,101914
2017-10-12T22:45:11.043Z,101912
2017-10-12T22:47:40.039Z,101912
2017-10-12T22:50:08.312Z,101914
2017-10-12T22:52:37.368Z,101906
2017-10-12T22:55:05.584Z,101914
2017-10-12T22:57:33.898Z,101909
2017-10-12T23:00:02.108Z,101906
2017-10-12T23:02:30.411Z,101927
2017-10-12T23:04:58.634Z,101925
2017-10-12T23:07:26.860Z,101916
2017-10-12T23:09:55.998Z,101915
2017-10-12T23:12:24.782Z,101923
2017-10-12T23:14:53.071Z,101921
2017-10-12T23:17:21.340Z,101918
2017-10-12T23:19:49.861Z,101916
2017-10-12T23:22:19.134Z,101920
2017-10-12T23:24:47.428Z,101927
2017-10-12T23:27:15.627Z,101925
2017-10-12T23:29:44.592Z,101931
2017-10-12T23:32:12.874Z,101926
2017-10-12T23:34:41.930Z,101923
2017-10-12T23:37:10.115Z,101929
2017-10-12T23:39:38.416Z,101941
2017-10-12T23:42:07.408Z,101951
2017-10-12T23:44:36.408Z,101941
2017-10-12T23:47:05.433Z,101943
2017-10-12T23:49:33.674Z,101948
2017-10-12T23:52:02.678Z,101947
2017-10-12T23:54:30.927Z,101947
2017-10-12T23:56:59.259Z,101954
2017-10-12T23:59:27.494Z,101946
